Time;durP1;ratioP1;P1;durP2;ratioP2;P2;SDS_P1;SDS_P2;PMS_P1;PMS_P2;Temp;Humidity;BMP_temperature;BMP_pressure;BME280_temperature;BME280_humidity;BME280_pressure;Samples;Min_cycle;Max_cycle;Signal;HPM_P1;HPM_P2
2023/03/07 00:05:09;;;;;;;11.32;10.13;;;;;;;-0.10;100.00;96893.53;15309161;19;20769;-78
2023/03/07 00:10:44;;;;;;;12.75;10.23;;;;;;;-0.09;100.00;96886.41;15307586;19;20050;-78
2023/03/07 00:16:10;;;;;;;11.40;10.25;;;;;;;-0.10;100.00;96877.63;15306042;19;20351;-80
2023/03/07 00:21:36;;;;;;;11.93;9.93;;;;;;;-0.11;100.00;96878.59;15312149;19;20013;-79
2023/03/07 00:27:03;;;;;;;11.93;10.73;;;;;;;-0.11;100.00;96864.50;15312176;19;20027;-79
2023/03/07 00:32:28;;;;;;;10.88;9.70;;;;;;;-0.15;100.00;96866.59;15312219;19;20035;-79
2023/03/07 00:37:52;;;;;;;11.80;10.60;;;;;;;-0.18;100.00;96866.88;15309905;19;20025;-80
2023/03/07 00:43:21;;;;;;;11.88;10.68;;;;;;;-0.18;100.00;96861.59;15334788;19;20003;-79
2023/03/07 00:48:46;;;;;;;11.57;10.48;;;;;;;-0.14;100.00;96847.09;15330871;19;20027;-79
2023/03/07 00:54:11;;;;;;;11.00;9.90;;;;;;;-0.14;100.00;96841.81;15311115;19;20022;-80
2023/03/07 00:59:39;;;;;;;11.70;10.50;;;;;;;-0.11;100.00;96828.31;15300838;19;20032;-79
2023/03/07 01:05:04;;;;;;;11.90;10.65;;;;;;;-0.09;100.00;96825.53;15299545;19;20047;-79
2023/03/07 01:10:29;;;;;;;11.45;10.32;;;;;;;-0.09;100.00;96815.78;15302273;19;20082;-79
2023/03/07 01:15:57;;;;;;;11.88;10.48;;;;;;;-0.12;100.00;96805.47;15305600;19;20011;-79
2023/03/07 01:21:24;;;;;;;12.05;10.50;;;;;;;-0.16;100.00;96793.44;15300157;19;20018;-80
2023/03/07 01:26:49;;;;;;;11.38;10.38;;;;;;;-0.14;100.00;96802.09;15302825;19;20011;-80
2023/03/07 01:32:17;;;;;;;11.75;10.60;;;;;;;-0.18;100.00;96792.78;15302432;19;20015;-79
2023/03/07 01:37:42;;;;;;;11.43;10.25;;;;;;;-0.20;100.00;96779.66;15303471;19;20010;-79
2023/03/07 01:43:25;;;;;;;12.13;10.95;;;;;;;-0.21;100.00;96772.69;15305630;19;20040;-79
2023/03/07 01:49:10;;;;;;;12.30;11.10;;;;;;;-0.18;100.00;96763.66;15308202;19;20018;-79
2023/03/07 01:54:47;;;;;;;11.90;10.70;;;;;;;-0.16;100.00;96751.09;15301688;19;20365;-79
2023/03/07 02:00:18;;;;;;;11.07;9.98;;;;;;;-0.11;100.00;96734.81;15306898;19;20843;-81
2023/03/07 02:05:51;;;;;;;10.60;9.60;;;;;;;-0.02;100.00;96721.63;15304278;19;20027;-80
2023/03/07 02:11:24;;;;;;;10.95;9.85;;;;;;;0.07;100.00;96713.81;15299464;19;20019;-80
2023/03/07 02:16:49;;;;;;;10.52;9.52;;;;;;;0.10;100.00;96702.94;15307595;19;20022;-80
2023/03/07 02:22:22;;;;;;;9.88;8.98;;;;;;;0.15;100.00;96685.69;15305645;19;20016;-81
2023/03/07 02:27:52;;;;;;;9.50;8.60;;;;;;;0.23;100.00;96679.69;15298065;19;20482;-80
2023/03/07 02:33:18;;;;;;;9.63;8.73;;;;;;;0.28;100.00;96669.53;15320485;19;20036;-80
2023/03/07 02:38:50;;;;;;;9.20;8.32;;;;;;;0.32;100.00;96653.31;15322528;19;20019;-80
2023/03/07 02:44:18;;;;;;;9.75;8.82;;;;;;;0.40;100.00;96645.53;15316837;19;20022;-79
2023/03/07 02:49:42;;;;;;;8.95;8.15;;;;;;;0.47;100.00;96633.38;15321775;19;20043;-79
2023/03/07 02:55:08;;;;;;;9.02;8.23;;;;;;;0.53;100.00;96632.81;15323942;19;20011;-80
2023/03/07 03:00:42;;;;;;;9.57;8.68;;;;;;;0.54;100.00;96626.53;15320042;19;20034;-80
2023/03/07 03:06:09;;;;;;;9.23;8.43;;;;;;;0.58;100.00;96627.09;15332376;19;20063;-79
2023/03/07 03:11:42;;;;;;;8.80;8.00;;;;;;;0.60;100.00;96599.47;15335093;19;20018;-79
2023/03/07 03:17:12;;;;;;;9.23;8.10;;;;;;;0.63;100.00;96600.16;15339225;19;20030;-80
2023/03/07 03:22:38;;;;;;;9.40;8.50;;;;;;;0.65;100.00;96580.47;15341651;19;20050;-81
2023/03/07 03:28:05;;;;;;;8.48;7.68;;;;;;;0.69;100.00;96581.03;15351674;19;19998;-81
2023/03/07 03:33:32;;;;;;;8.10;7.30;;;;;;;0.70;100.00;96580.91;15336565;19;20018;-78
2023/03/07 03:38:58;;;;;;;8.15;7.45;;;;;;;0.72;100.00;96565.66;15318752;19;20014;-79
2023/03/07 03:44:29;;;;;;;8.13;7.43;;;;;;;0.75;100.00;96559.25;15329815;19;20010;-81
2023/03/07 03:49:56;;;;;;;8.57;7.35;;;;;;;0.76;100.00;96556.44;15359148;19;20014;-80
2023/03/07 03:55:23;;;;;;;7.50;6.80;;;;;;;0.80;100.00;96546.38;15347360;19;20019;-80
2023/03/07 04:00:47;;;;;;;7.43;6.82;;;;;;;0.82;100.00;96539.13;15329146;19;20022;-80
2023/03/07 04:06:19;;;;;;;7.70;6.90;;;;;;;0.85;100.00;96549.44;15305597;19;20014;-77
2023/03/07 04:11:52;;;;;;;7.53;6.82;;;;;;;0.86;100.00;96529.91;15302795;19;20010;-80
2023/03/07 04:17:17;;;;;;;6.45;5.95;;;;;;;0.85;100.00;96528.25;15312007;19;20014;-81
2023/03/07 04:22:44;;;;;;;6.13;5.63;;;;;;;0.88;100.00;96525.28;15301889;19;20018;-75
2023/03/07 04:28:08;;;;;;;6.20;5.68;;;;;;;0.93;100.00;96524.84;15296738;19;20018;-77
2023/03/07 04:33:34;;;;;;;6.28;5.78;;;;;;;0.95;100.00;96520.22;15286872;19;20047;-75
2023/03/07 04:39:01;;;;;;;7.47;5.75;;;;;;;0.97;100.00;96514.78;15285182;19;20026;-75
2023/03/07 04:44:28;;;;;;;6.55;5.72;;;;;;;0.96;100.00;96523.72;15281300;19;20054;-76
2023/03/07 04:49:54;;;;;;;5.95;5.45;;;;;;;0.95;100.00;96522.88;15285620;19;21727;-74
2023/03/07 04:55:23;;;;;;;6.10;5.57;;;;;;;1.02;100.00;96512.50;15290011;19;20047;-75
2023/03/07 05:00:48;;;;;;;5.70;5.20;;;;;;;1.06;100.00;96503.28;15291079;19;20415;-74
2023/03/07 05:06:16;;;;;;;5.68;5.18;;;;;;;1.13;100.00;96500.88;15286558;19;20462;-76
2023/03/07 05:11:50;;;;;;;5.95;5.45;;;;;;;1.10;100.00;96507.31;15287835;19;20023;-75
2023/03/07 05:17:18;;;;;;;5.20;4.80;;;;;;;1.16;100.00;96501.41;15289450;19;20011;-75
2023/03/07 05:22:42;;;;;;;5.40;4.90;;;;;;;1.13;100.00;96499.03;15292274;19;20018;-76
2023/03/07 05:28:09;;;;;;;5.50;5.00;;;;;;;1.19;100.00;96508.22;15289468;19;20474;-76
2023/03/07 05:33:35;;;;;;;5.10;4.70;;;;;;;1.20;100.00;96497.47;15293034;19;20006;-76
2023/03/07 05:38:59;;;;;;;5.03;4.63;;;;;;;1.18;100.00;96504.75;15287944;19;20006;-76
2023/03/07 05:44:28;;;;;;;4.75;4.35;;;;;;;1.21;100.00;96504.44;15291893;19;20017;-77
2023/03/07 05:49:52;;;;;;;4.97;4.45;;;;;;;1.23;100.00;96505.09;15290747;19;20015;-76
2023/03/07 05:55:18;;;;;;;4.97;4.57;;;;;;;1.23;100.00;96502.44;15290868;19;20010;-76
2023/03/07 06:00:46;;;;;;;5.38;4.93;;;;;;;1.24;100.00;96505.97;15289372;19;20818;-76
2023/03/07 06:06:12;;;;;;;5.63;5.13;;;;;;;1.17;100.00;96504.91;15293020;19;20011;-76
2023/03/07 06:11:43;;;;;;;5.72;5.22;;;;;;;1.18;100.00;96504.75;15299450;19;20370;-76
2023/03/07 06:17:10;;;;;;;6.03;5.53;;;;;;;1.18;100.00;96504.75;15287105;19;20046;-77
2023/03/07 06:22:37;;;;;;;5.72;5.22;;;;;;;1.22;100.00;96490.19;15288753;19;20006;-77
2023/03/07 06:28:01;;;;;;;5.72;5.22;;;;;;;1.25;100.00;96490.84;15285299;19;20039;-77
2023/03/07 06:33:29;;;;;;;5.55;5.05;;;;;;;1.26;100.00;96495.19;15289476;19;20039;-77
2023/03/07 06:38:53;;;;;;;5.00;4.60;;;;;;;1.28;100.00;96487.91;15290458;19;20015;-78
2023/03/07 06:44:19;;;;;;;4.20;3.83;;;;;;;1.38;100.00;96493.97;15284416;19;20044;-77
2023/03/07 06:49:46;;;;;;;4.25;3.85;;;;;;;1.48;100.00;96497.38;15289911;19;20011;-78
2023/03/07 06:55:14;;;;;;;4.15;3.75;;;;;;;1.53;100.00;96489.81;15287871;19;20021;-76
2023/03/07 07:00:38;;;;;;;3.45;3.15;;;;;;;1.65;100.00;96506.31;15286682;19;20017;-75
2023/03/07 07:06:06;;;;;;;3.40;3.10;;;;;;;1.69;100.00;96494.44;15282843;19;20028;-76
2023/03/07 07:11:38;;;;;;;3.15;2.92;;;;;;;1.74;100.00;96491.31;15281867;19;20874;-76
2023/03/07 07:17:02;;;;;;;2.80;2.60;;;;;;;1.80;100.00;96493.38;15278239;19;20011;-76
2023/03/07 07:22:30;;;;;;;3.05;2.85;;;;;;;1.93;100.00;96489.47;15287555;19;20022;-77
2023/03/07 07:27:54;;;;;;;2.92;2.72;;;;;;;1.99;100.00;96499.47;15284969;19;20014;-77
2023/03/07 07:33:19;;;;;;;2.80;2.60;;;;;;;2.08;100.00;96503.03;15299695;19;20022;-77
2023/03/07 07:38:46;;;;;;;2.80;2.55;;;;;;;2.16;100.00;96505.72;15289487;19;20006;-77
2023/03/07 07:44:12;;;;;;;2.72;2.53;;;;;;;2.27;100.00;96499.34;15287262;19;20027;-77
2023/03/07 07:49:39;;;;;;;2.60;2.40;;;;;;;2.37;100.00;96500.06;15292861;19;20006;-78
2023/03/07 07:55:09;;;;;;;2.80;2.60;;;;;;;2.46;100.00;96495.63;15299830;19;20127;-77
2023/03/07 08:00:34;;;;;;;2.50;2.30;;;;;;;2.50;100.00;96504.13;15301544;19;20411;-77
2023/03/07 08:05:58;;;;;;;2.70;2.50;;;;;;;2.55;100.00;96500.00;15298690;19;20482;-77
2023/03/07 08:11:25;;;;;;;2.58;2.38;;;;;;;2.57;100.00;96499.81;15298312;19;20458;-77
2023/03/07 08:16:50;;;;;;;2.92;2.70;;;;;;;2.59;100.00;96503.16;15297892;19;20070;-77
2023/03/07 08:22:15;;;;;;;3.00;2.80;;;;;;;2.64;100.00;96482.25;15296237;19;20481;-77
2023/03/07 08:27:43;;;;;;;2.90;2.70;;;;;;;2.72;100.00;96487.59;15294211;19;20021;-78
2023/03/07 08:33:08;;;;;;;2.88;2.67;;;;;;;2.81;100.00;96463.69;15301508;19;20010;-77
2023/03/07 08:38:32;;;;;;;3.20;3.00;;;;;;;2.92;100.00;96469.56;15302005;19;20010;-77
2023/03/07 08:43:59;;;;;;;3.40;3.10;;;;;;;3.08;100.00;96460.81;15306758;19;20078;-77
2023/03/07 08:49:24;;;;;;;3.53;3.28;;;;;;;3.19;100.00;96458.81;15303103;19;20027;-78
2023/03/07 08:54:52;;;;;;;3.90;3.60;;;;;;;3.23;100.00;96471.63;15326539;19;20067;-77
2023/03/07 09:00:13;;;;;;;3.50;3.30;;;;;;;3.32;100.00;96448.53;15327113;19;20090;-77
2023/03/07 09:05:40;;;;;;;3.88;3.58;;;;;;;3.39;100.00;96443.38;15298321;19;20092;-78
2023/03/07 09:11:12;;;;;;;4.15;3.85;;;;;;;3.45;100.00;96442.72;15302349;19;20010;-78
2023/03/07 09:16:46;;;;;;;4.40;4.00;;;;;;;3.53;100.00;96429.41;15299530;19;20031;-77
2023/03/07 09:22:10;;;;;;;3.72;3.42;;;;;;;3.61;100.00;96428.56;15302952;19;20006;-79
2023/03/07 09:27:35;;;;;;;3.70;3.40;;;;;;;3.73;100.00;96434.41;15296267;19;20364;-78
2023/03/07 09:33:03;;;;;;;3.83;3.53;;;;;;;3.88;100.00;96426.56;15301276;19;20020;-78
2023/03/07 09:38:27;;;;;;;3.53;3.22;;;;;;;4.07;100.00;96416.53;15300599;19;20032;-77
2023/03/07 09:43:59;;;;;;;3.40;3.10;;;;;;;4.13;100.00;96402.53;15300147;19;20010;-77
2023/03/07 09:49:53;;;;;;;3.40;3.10;;;;;;;4.26;100.00;96418.00;15301068;19;20006;-78
2023/03/07 09:55:22;;;;;;;3.33;3.03;;;;;;;4.46;100.00;96402.44;15300930;19;20006;-78
2023/03/07 10:00:50;;;;;;;3.17;2.88;;;;;;;4.47;100.00;96385.44;15289910;19;20078;-78
2023/03/07 10:06:31;;;;;;;2.90;2.70;;;;;;;4.59;100.00;96385.88;15293091;19;20017;-78
2023/03/07 10:12:27;;;;;;;3.03;2.65;;;;;;;4.63;100.00;96374.72;15290445;19;20011;-78
2023/03/07 10:18:12;;;;;;;3.10;2.75;;;;;;;4.57;100.00;96382.56;15291962;19;20015;-78
2023/03/07 10:23:52;;;;;;;2.78;2.58;;;;;;;4.61;100.00;96362.53;15291239;19;20352;-78
2023/03/07 10:29:20;;;;;;;2.53;2.33;;;;;;;4.64;100.00;96388.84;15293919;19;20082;-78
2023/03/07 10:34:47;;;;;;;2.70;2.50;;;;;;;4.73;100.00;96360.31;15301846;19;20081;-80
2023/03/07 10:40:21;;;;;;;2.70;2.50;;;;;;;4.84;100.00;96369.75;15300785;19;20073;-77
2023/03/07 10:45:46;;;;;;;2.47;2.28;;;;;;;5.12;100.00;96359.38;15294731;19;20023;-78
2023/03/07 10:51:25;;;;;;;2.70;2.50;;;;;;;5.28;100.00;96368.28;15293946;19;20086;-78
2023/03/07 10:57:11;;;;;;;2.85;2.63;;;;;;;5.23;100.00;96345.63;15298397;19;20105;-78
2023/03/07 11:02:39;;;;;;;3.58;2.65;;;;;;;5.31;100.00;96330.56;15294602;19;20027;-79
2023/03/07 11:08:05;;;;;;;2.97;2.78;;;;;;;5.55;100.00;96330.34;15299224;19;20022;-78
2023/03/07 11:13:33;;;;;;;2.58;2.38;;;;;;;5.64;100.00;96307.06;15305433;19;20018;-77
2023/03/07 11:18:58;;;;;;;2.72;2.53;;;;;;;5.74;100.00;96313.97;15340700;19;20018;-77
2023/03/07 11:24:27;;;;;;;2.70;2.50;;;;;;;5.93;100.00;96289.38;15303876;19;20038;-77
2023/03/07 11:30:14;;;;;;;2.55;2.35;;;;;;;5.97;100.00;96279.13;15289559;19;20146;-77
2023/03/07 11:36:04;;;;;;;2.50;2.30;;;;;;;6.03;100.00;96278.44;15304721;19;20014;-78
2023/03/07 11:41:35;;;;;;;2.83;2.50;;;;;;;6.08;100.00;96286.72;15316177;19;20023;-78
2023/03/07 11:47:24;;;;;;;2.72;2.50;;;;;;;6.20;100.00;96270.19;15309962;19;20267;-77
2023/03/07 11:53:03;;;;;;;2.70;2.50;;;;;;;6.02;100.00;96295.50;15316334;19;20010;-77
2023/03/07 11:58:37;;;;;;;4.15;2.70;;;;;;;6.16;100.00;96277.78;15298553;19;20038;-77
2023/03/07 12:04:48;;;;;;;2.75;2.55;;;;;;;5.97;100.00;96298.69;15304480;19;20516;-79
2023/03/07 12:10:30;;;;;;;2.72;2.40;;;;;;;5.83;100.00;96291.50;15302568;19;20541;-78
2023/03/07 12:16:04;;;;;;;3.55;2.60;;;;;;;5.73;100.00;96258.88;15305273;19;20781;-77
2023/03/07 12:22:02;;;;;;;2.92;2.63;;;;;;;5.80;100.00;96252.63;15308921;19;20018;-77
2023/03/07 12:27:34;;;;;;;2.40;2.20;;;;;;;5.85;100.00;96268.91;15304032;19;20010;-77
2023/03/07 12:33:00;;;;;;;2.50;2.30;;;;;;;5.93;100.00;96309.94;15301807;19;20046;-76
2023/03/07 12:38:35;;;;;;;3.50;2.40;;;;;;;5.79;100.00;96285.69;15297586;19;20023;-79
2023/03/07 12:44:05;;;;;;;2.30;2.10;;;;;;;5.88;100.00;96269.56;15307506;19;20035;-77
2023/03/07 12:49:38;;;;;;;2.60;2.40;;;;;;;5.98;100.00;96252.25;15300978;19;20090;-78
2023/03/07 12:55:22;;;;;;;2.88;2.10;;;;;;;6.15;100.00;96252.91;15306206;19;20014;-78
2023/03/07 13:00:51;;;;;;;2.47;2.28;;;;;;;6.17;100.00;96245.50;15303283;19;20018;-79
2023/03/07 13:06:20;;;;;;;3.03;2.40;;;;;;;6.26;100.00;96270.28;15305848;19;20011;-79
2023/03/07 13:12:23;;;;;;;2.35;2.15;;;;;;;6.09;100.00;96258.97;15291139;19;20026;-77
2023/03/07 13:18:01;;;;;;;2.28;2.08;;;;;;;6.11;100.00;96267.66;15300565;19;20014;-75
2023/03/07 13:23:35;;;;;;;2.50;2.10;;;;;;;6.11;100.00;96262.28;15300026;19;20018;-76
2023/03/07 13:29:03;;;;;;;2.20;1.95;;;;;;;6.09;100.00;96263.50;15294652;19;20490;-77
2023/03/07 13:34:55;;;;;;;2.30;2.10;;;;;;;6.14;100.00;96250.38;15300570;19;20362;-77
2023/03/07 13:40:49;;;;;;;2.37;2.07;;;;;;;6.08;100.00;96251.16;15303223;19;20002;-77
2023/03/07 13:46:51;;;;;;;2.63;2.30;;;;;;;5.78;100.00;96260.00;15294807;19;20014;-77
2023/03/07 13:52:43;;;;;;;2.00;1.90;;;;;;;5.75;100.00;96252.34;15303551;19;20039;-77
2023/03/07 13:58:24;;;;;;;2.58;2.38;;;;;;;5.73;100.00;96270.38;15303467;19;20022;-77
2023/03/07 14:03:55;;;;;;;2.80;2.47;;;;;;;5.60;100.00;96254.16;15294236;19;20010;-76
2023/03/07 14:09:23;;;;;;;2.50;2.30;;;;;;;5.50;100.00;96270.47;15294260;19;20036;-78
2023/03/07 14:15:04;;;;;;;2.78;2.15;;;;;;;5.51;100.00;96254.25;15288742;19;20018;-76
2023/03/07 14:20:40;;;;;;;3.25;2.42;;;;;;;5.37;100.00;96255.06;15298537;19;20010;-77
2023/03/07 14:26:13;;;;;;;2.67;2.40;;;;;;;5.34;100.00;96250.94;15295482;19;20031;-77
2023/03/07 14:31:45;;;;;;;2.65;2.10;;;;;;;5.29;100.00;96244.47;15288799;19;20384;-76
2023/03/07 14:37:17;;;;;;;2.70;2.50;;;;;;;5.22;100.00;96242.53;15285564;19;20062;-76
2023/03/07 14:42:49;;;;;;;4.22;2.33;;;;;;;5.20;100.00;96260.56;15293511;19;20010;-77
2023/03/07 14:48:43;;;;;;;2.50;2.30;;;;;;;5.16;100.00;96253.94;15292901;19;20073;-77
2023/03/07 14:54:24;;;;;;;2.67;2.30;;;;;;;5.15;100.00;96260.28;15336800;19;20361;-78
2023/03/07 15:00:05;;;;;;;2.53;2.30;;;;;;;5.12;100.00;96249.94;15313226;19;20018;-77
2023/03/07 15:05:31;;;;;;;3.07;2.50;;;;;;;5.15;100.00;96248.78;15361704;19;20017;-76
2023/03/07 15:11:04;;;;;;;4.97;2.13;;;;;;;5.14;100.00;96258.63;15308583;19;20019;-77
2023/03/07 15:16:33;;;;;;;3.33;2.50;;;;;;;5.13;100.00;96246.28;15307932;19;20032;-76
2023/03/07 15:22:00;;;;;;;2.28;2.08;;;;;;;5.12;100.00;96236.59;15301318;19;20088;-77
2023/03/07 15:27:33;;;;;;;2.70;2.38;;;;;;;5.11;100.00;96251.00;15305254;19;20019;-77
2023/03/07 15:33:14;;;;;;;2.40;2.20;;;;;;;5.07;100.00;96252.34;15307466;19;20023;-77
2023/03/07 15:38:38;;;;;;;2.17;1.97;;;;;;;5.08;100.00;96254.81;15308558;19;20050;-77
2023/03/07 15:44:19;;;;;;;2.15;1.98;;;;;;;5.04;100.00;96256.22;15301871;19;20021;-78
2023/03/07 15:49:50;;;;;;;3.20;2.35;;;;;;;5.05;100.00;96257.03;15295915;19;20069;-77
2023/03/07 15:55:20;;;;;;;2.20;2.00;;;;;;;5.03;100.00;96259.03;14785251;19;10000416;-76
2023/03/07 16:00:49;;;;;;;2.93;2.30;;;;;;;5.03;100.00;96259.91;15307139;19;20035;-77
2023/03/07 16:06:32;;;;;;;2.45;2.20;;;;;;;4.98;100.00;96266.78;15306409;19;20074;-77
2023/03/07 16:12:04;;;;;;;2.58;2.30;;;;;;;4.96;100.00;96266.13;15301584;19;20043;-77
2023/03/07 16:17:35;;;;;;;2.33;2.13;;;;;;;4.95;100.00;96262.59;15294460;19;20033;-77
2023/03/07 16:23:01;;;;;;;2.50;2.30;;;;;;;4.99;100.00;96268.44;15296330;19;20493;-76
2023/03/07 16:28:26;;;;;;;2.40;2.20;;;;;;;4.94;100.00;96261.78;15291602;19;20031;-75
2023/03/07 16:33:54;;;;;;;2.60;2.40;;;;;;;4.88;100.00;96261.69;15292923;19;20706;-76
2023/03/07 16:39:20;;;;;;;2.53;2.33;;;;;;;4.78;100.00;96285.91;15292976;19;20078;-75
2023/03/07 16:44:48;;;;;;;3.92;2.60;;;;;;;4.70;100.00;96280.66;15290689;19;20007;-76
2023/03/07 16:50:21;;;;;;;2.65;2.45;;;;;;;4.61;100.00;96304.72;15290991;19;20355;-75
2023/03/07 16:55:51;;;;;;;2.60;2.33;;;;;;;4.43;100.00;96306.78;15298603;19;20015;-76
2023/03/07 17:01:17;;;;;;;2.90;2.60;;;;;;;4.01;100.00;96314.97;15284688;19;20007;-76
2023/03/07 17:06:50;;;;;;;2.60;2.40;;;;;;;3.57;100.00;96339.41;15298500;19;20036;-76
2023/03/07 17:12:31;;;;;;;2.63;2.42;;;;;;;3.08;100.00;96364.19;15287136;19;20035;-75
2023/03/07 17:17:57;;;;;;;2.63;2.40;;;;;;;2.67;100.00;96375.59;15293913;19;20027;-76
2023/03/07 17:23:24;;;;;;;2.50;2.30;;;;;;;2.31;100.00;96391.72;15294071;19;20542;-77
2023/03/07 17:28:51;;;;;;;2.80;2.60;;;;;;;2.04;100.00;96400.75;15286705;19;20028;-79
2023/03/07 17:34:25;;;;;;;2.97;2.60;;;;;;;1.91;100.00;96419.75;15298963;19;20105;-77
2023/03/07 17:39:54;;;;;;;2.33;2.13;;;;;;;1.71;100.00;96419.94;15302702;19;20092;-77
2023/03/07 17:45:21;;;;;;;2.20;2.00;;;;;;;1.54;100.00;96451.69;15324239;19;20015;-75
2023/03/07 17:50:47;;;;;;;2.40;1.88;;;;;;;1.43;100.00;96461.69;15328330;19;20039;-76
2023/03/07 17:56:20;;;;;;;1.77;1.67;;;;;;;1.33;100.00;96461.78;15301125;19;20395;-75
2023/03/07 18:01:45;;;;;;;2.00;1.80;;;;;;;1.26;100.00;96473.97;15293995;19;20036;-76
2023/03/07 18:07:10;;;;;;;1.83;1.73;;;;;;;1.20;100.00;96486.00;15298975;19;20014;-77
2023/03/07 18:12:44;;;;;;;2.40;2.20;;;;;;;1.12;100.00;96496.53;15277732;19;20046;-76
2023/03/07 18:18:10;;;;;;;2.72;2.53;;;;;;;1.03;100.00;96504.41;15289080;19;20078;-76
2023/03/07 18:23:34;;;;;;;2.45;2.00;;;;;;;0.93;100.00;96498.34;15290768;19;20070;-78
2023/03/07 18:29:02;;;;;;;2.58;2.30;;;;;;;0.87;100.00;96501.56;15280847;19;20769;-77
2023/03/07 18:34:28;;;;;;;2.70;2.50;;;;;;;0.84;100.00;96504.50;15274075;19;20014;-83
2023/03/07 18:39:53;;;;;;;2.67;2.47;;;;;;;0.75;100.00;96506.25;15278514;19;20088;-78
2023/03/07 18:45:22;;;;;;;3.28;2.72;;;;;;;0.64;100.00;96517.03;15277546;19;20730;-77
2023/03/07 18:50:57;;;;;;;2.78;2.50;;;;;;;0.57;100.00;96535.34;15283251;19;20019;-77
2023/03/07 18:56:23;;;;;;;2.72;2.53;;;;;;;0.50;100.00;96532.44;15286961;19;20036;-79
2023/03/07 19:01:51;;;;;;;2.60;2.40;;;;;;;0.54;100.00;96523.19;15300955;19;20035;-76
2023/03/07 19:07:16;;;;;;;3.00;2.80;;;;;;;0.49;100.00;96512.22;15266266;19;20017;-76
2023/03/07 19:12:47;;;;;;;3.20;3.00;;;;;;;0.50;100.00;96523.63;15267286;19;20021;-77
2023/03/07 19:18:14;;;;;;;3.58;3.28;;;;;;;0.47;100.00;96535.34;15271943;19;20085;-76
2023/03/07 19:23:39;;;;;;;22.05;4.25;;;;;;;0.42;100.00;96553.50;15272502;19;20011;-79
2023/03/07 19:29:04;;;;;;;5.50;3.33;;;;;;;0.35;100.00;96560.34;15273352;19;20014;-77
2023/03/07 19:34:31;;;;;;;169.57;9.95;;;;;;;0.27;100.00;96572.50;15273497;19;20033;-77
2023/03/07 19:39:56;;;;;;;223.82;12.88;;;;;;;0.23;100.00;96573.75;15268492;19;20058;-77
2023/03/07 19:45:20;;;;;;;100.35;7.35;;;;;;;0.21;100.00;96586.31;15281212;19;20070;-80
2023/03/07 19:50:48;;;;;;;102.55;6.50;;;;;;;0.19;100.00;96593.53;15282781;19;20078;-77
2023/03/07 19:56:17;;;;;;;74.53;6.22;;;;;;;0.14;100.00;96601.09;15287838;19;20019;-81
2023/03/07 20:01:42;;;;;;;5.38;4.88;;;;;;;0.12;100.00;96597.75;15288411;19;20013;-78
2023/03/07 20:07:13;;;;;;;11.15;5.88;;;;;;;0.07;100.00;96607.91;15283824;19;20014;-77
2023/03/07 20:12:44;;;;;;;7.50;5.97;;;;;;;0.05;100.00;96631.06;15280029;19;20059;-77
2023/03/07 20:18:10;;;;;;;6.40;5.80;;;;;;;0.05;100.00;96636.34;15286486;19;20011;-78
2023/03/07 20:23:37;;;;;;;5.45;5.00;;;;;;;0.03;100.00;96641.78;15289535;19;20498;-79
2023/03/07 20:29:05;;;;;;;5.78;5.28;;;;;;;0.04;100.00;96654.03;15265647;19;20028;-79
2023/03/07 20:34:29;;;;;;;5.20;4.80;;;;;;;0.03;100.00;96665.59;15305062;19;20018;-80
2023/03/07 20:39:58;;;;;;;6.65;6.05;;;;;;;0.07;100.00;96668.81;15294523;19;20007;-77
2023/03/07 20:45:26;;;;;;;16.85;6.78;;;;;;;0.06;100.00;96670.63;15281479;19;20078;-76
2023/03/07 20:50:58;;;;;;;27.85;7.47;;;;;;;0.04;100.00;96671.75;15289568;19;20010;-76
2023/03/07 20:56:31;;;;;;;6.05;5.55;;;;;;;0.06;100.00;96688.34;15295563;19;20013;-77
2023/03/07 21:01:58;;;;;;;62.08;8.68;;;;;;;0.09;100.00;96703.94;15294204;19;20633;-82
2023/03/07 21:07:23;;;;;;;288.00;15.27;;;;;;;0.13;100.00;96710.63;15294122;19;20077;-77
2023/03/07 21:12:58;;;;;;;375.33;15.68;;;;;;;0.09;100.00;96717.16;15291228;19;20033;-78
2023/03/07 21:18:23;;;;;;;141.38;9.93;;;;;;;0.08;100.00;96721.63;15290551;19;20478;-78
2023/03/07 21:23:47;;;;;;;11.07;7.00;;;;;;;0.09;100.00;96725.97;15292353;19;20014;-78
2023/03/07 21:29:14;;;;;;;6.53;5.93;;;;;;;0.10;100.00;96734.72;15299053;19;20411;-78
2023/03/07 21:34:39;;;;;;;6.20;5.60;;;;;;;0.15;100.00;96737.81;15299025;19;20022;-80
2023/03/07 21:40:05;;;;;;;5.60;5.10;;;;;;;0.17;100.00;96749.09;15300779;19;20020;-78
2023/03/07 21:45:33;;;;;;;5.20;4.78;;;;;;;0.13;100.00;96760.94;15299365;19;20094;-77
2023/03/07 21:50:58;;;;;;;4.55;4.15;;;;;;;0.14;100.00;96762.63;15297247;19;20075;-79
2023/03/07 21:56:25;;;;;;;4.93;4.47;;;;;;;0.08;100.00;96766.66;15304667;19;20027;-79
2023/03/07 22:01:52;;;;;;;5.70;4.00;;;;;;;0.07;100.00;96777.34;15304120;19;20021;-78
2023/03/07 22:07:17;;;;;;;4.53;4.13;;;;;;;0.02;100.00;96771.66;15297525;19;20050;-78
2023/03/07 22:12:48;;;;;;;5.32;4.82;;;;;;;-0.01;100.00;96770.94;15299796;19;20081;-79
2023/03/07 22:18:16;;;;;;;108.90;10.23;;;;;;;0.02;100.00;96776.94;15294485;19;20007;-79
2023/03/07 22:23:40;;;;;;;17.92;6.55;;;;;;;0.09;100.00;96786.84;15299662;19;20011;-77
2023/03/07 22:29:05;;;;;;;69.90;7.85;;;;;;;0.06;100.00;96794.25;15298986;19;20478;-78
2023/03/07 22:34:33;;;;;;;16.77;5.88;;;;;;;0.06;100.00;96792.41;15295987;19;20023;-79
2023/03/07 22:39:58;;;;;;;5.53;5.03;;;;;;;0.05;100.00;96803.16;15300708;19;20026;-79
2023/03/07 22:45:23;;;;;;;4.85;4.45;;;;;;;0.07;100.00;96814.41;15319987;19;20353;-77
2023/03/07 22:50:50;;;;;;;5.07;4.68;;;;;;;0.07;100.00;96815.28;15312120;19;20027;-79
2023/03/07 22:56:22;;;;;;;4.18;3.78;;;;;;;0.07;100.00;96819.72;15299897;19;20096;-80
2023/03/07 23:01:47;;;;;;;3.97;3.67;;;;;;;0.08;100.00;96824.03;15304182;19;20427;-80
2023/03/07 23:07:15;;;;;;;3.85;3.55;;;;;;;0.03;100.00;96824.44;15304662;19;20062;-80
2023/03/07 23:12:46;;;;;;;4.28;3.97;;;;;;;-0.01;100.00;96828.34;15302299;19;20553;-80
2023/03/07 23:18:11;;;;;;;4.53;4.13;;;;;;;0.03;100.00;96834.22;15354661;19;20043;-77
2023/03/07 23:23:38;;;;;;;4.68;4.28;;;;;;;0.05;100.00;96837.56;15299607;19;20020;-78
2023/03/07 23:29:03;;;;;;;4.88;4.47;;;;;;;0.07;100.00;96831.16;15306027;19;20022;-79
2023/03/07 23:34:29;;;;;;;4.22;3.53;;;;;;;0.08;100.00;96824.91;15307938;19;20094;-77
2023/03/07 23:39:57;;;;;;;3.40;3.10;;;;;;;0.04;100.00;96839.38;15310887;19;20070;-79
2023/03/07 23:45:21;;;;;;;3.90;3.60;;;;;;;-0.02;100.00;96859.28;15306411;19;20418;-78
2023/03/07 23:50:46;;;;;;;4.65;4.25;;;;;;;-0.01;100.00;96850.34;15307860;19;20017;-79
2023/03/07 23:56:16;;;;;;;5.22;4.82;;;;;;;-0.01;100.00;96854.84;15303204;19;20062;-79
